sensor_id;sensor_type;location;lat;lon;timestamp;P1;durP1;ratioP1;P2;durP2;ratioP2
67869;SDS011;54673;52.262;6.830;2022-08-19T00:01:27;3.40;;;3.10;;
67869;SDS011;54673;52.262;6.830;2022-08-19T00:03:54;3.80;;;3.10;;
67869;SDS011;54673;52.262;6.830;2022-08-19T00:06:20;5.23;;;3.10;;
67869;SDS011;54673;52.262;6.830;2022-08-19T00:08:46;3.50;;;3.17;;
67869;SDS011;54673;52.262;6.830;2022-08-19T00:11:12;3.93;;;3.53;;
67869;SDS011;54673;52.262;6.830;2022-08-19T00:13:37;5.65;;;3.53;;
67869;SDS011;54673;52.262;6.830;2022-08-19T00:16:04;4.10;;;3.10;;
67869;SDS011;54673;52.262;6.830;2022-08-19T00:18:31;5.22;;;3.00;;
67869;SDS011;54673;52.262;6.830;2022-08-19T00:20:57;3.75;;;3.10;;
67869;SDS011;54673;52.262;6.830;2022-08-19T00:23:24;4.23;;;3.30;;
67869;SDS011;54673;52.262;6.830;2022-08-19T00:25:50;4.22;;;3.60;;
67869;SDS011;54673;52.262;6.830;2022-08-19T00:28:16;4.47;;;3.20;;
67869;SDS011;54673;52.262;6.830;2022-08-19T00:30:43;4.47;;;3.10;;
67869;SDS011;54673;52.262;6.830;2022-08-19T00:33:08;3.63;;;3.00;;
67869;SDS011;54673;52.262;6.830;2022-08-19T00:35:34;3.47;;;3.17;;
67869;SDS011;54673;52.262;6.830;2022-08-19T00:38:00;3.37;;;3.07;;
67869;SDS011;54673;52.262;6.830;2022-08-19T00:40:26;3.03;;;2.70;;
67869;SDS011;54673;52.262;6.830;2022-08-19T00:42:51;3.23;;;2.10;;
67869;SDS011;54673;52.262;6.830;2022-08-19T00:45:21;1.83;;;1.63;;
67869;SDS011;54673;52.262;6.830;2022-08-19T00:47:51;2.60;;;1.90;;
67869;SDS011;54673;52.262;6.830;2022-08-19T00:50:17;3.97;;;2.20;;
67869;SDS011;54673;52.262;6.830;2022-08-19T00:52:47;4.30;;;2.60;;
67869;SDS011;54673;52.262;6.830;2022-08-19T00:55:22;4.47;;;2.53;;
67869;SDS011;54673;52.262;6.830;2022-08-19T00:57:51;3.80;;;2.67;;
67869;SDS011;54673;52.262;6.830;2022-08-19T01:00:21;2.80;;;2.50;;
67869;SDS011;54673;52.262;6.830;2022-08-19T01:02:48;3.73;;;3.00;;
67869;SDS011;54673;52.262;6.830;2022-08-19T01:05:15;3.45;;;2.80;;
67869;SDS011;54673;52.262;6.830;2022-08-19T01:07:45;3.88;;;3.20;;
67869;SDS011;54673;52.262;6.830;2022-08-19T01:10:14;3.37;;;3.07;;
67869;SDS011;54673;52.262;6.830;2022-08-19T01:12:44;3.50;;;3.10;;
67869;SDS011;54673;52.262;6.830;2022-08-19T01:15:11;4.95;;;3.50;;
67869;SDS011;54673;52.262;6.830;2022-08-19T01:17:39;4.13;;;3.40;;
67869;SDS011;54673;52.262;6.830;2022-08-19T01:20:07;4.60;;;3.10;;
67869;SDS011;54673;52.262;6.830;2022-08-19T01:22:40;3.75;;;3.15;;
67869;SDS011;54673;52.262;6.830;2022-08-19T01:25:24;4.78;;;3.03;;
67869;SDS011;54673;52.262;6.830;2022-08-19T01:27:54;5.10;;;2.90;;
67869;SDS011;54673;52.262;6.830;2022-08-19T01:30:24;3.50;;;3.20;;
67869;SDS011;54673;52.262;6.830;2022-08-19T01:32:54;4.43;;;2.83;;
67869;SDS011;54673;52.262;6.830;2022-08-19T01:35:21;4.90;;;2.80;;
67869;SDS011;54673;52.262;6.830;2022-08-19T01:37:56;4.68;;;2.90;;
67869;SDS011;54673;52.262;6.830;2022-08-19T01:40:29;3.55;;;2.85;;
67869;SDS011;54673;52.262;6.830;2022-08-19T01:42:57;2.70;;;2.50;;
67869;SDS011;54673;52.262;6.830;2022-08-19T01:45:24;3.85;;;3.00;;
67869;SDS011;54673;52.262;6.830;2022-08-19T01:47:51;3.83;;;3.20;;
67869;SDS011;54673;52.262;6.830;2022-08-19T01:50:17;4.67;;;2.70;;
67869;SDS011;54673;52.262;6.830;2022-08-19T01:52:43;4.60;;;3.20;;
67869;SDS011;54673;52.262;6.830;2022-08-19T01:55:11;4.43;;;2.90;;
67869;SDS011;54673;52.262;6.830;2022-08-19T01:57:39;4.47;;;2.75;;
67869;SDS011;54673;52.262;6.830;2022-08-19T02:00:09;4.03;;;2.90;;
67869;SDS011;54673;52.262;6.830;2022-08-19T02:02:36;3.33;;;2.60;;
67869;SDS011;54673;52.262;6.830;2022-08-19T02:05:03;2.85;;;2.40;;
67869;SDS011;54673;52.262;6.830;2022-08-19T02:07:29;2.47;;;2.10;;
67869;SDS011;54673;52.262;6.830;2022-08-19T02:09:54;3.37;;;2.50;;
67869;SDS011;54673;52.262;6.830;2022-08-19T02:12:20;3.13;;;2.50;;
67869;SDS011;54673;52.262;6.830;2022-08-19T02:14:46;2.83;;;2.53;;
67869;SDS011;54673;52.262;6.830;2022-08-19T02:17:12;3.00;;;2.30;;
67869;SDS011;54673;52.262;6.830;2022-08-19T02:19:38;2.73;;;2.50;;
67869;SDS011;54673;52.262;6.830;2022-08-19T02:22:04;5.30;;;2.28;;
67869;SDS011;54673;52.262;6.830;2022-08-19T02:24:30;2.27;;;2.07;;
67869;SDS011;54673;52.262;6.830;2022-08-19T02:26:55;2.63;;;2.00;;
67869;SDS011;54673;52.262;6.830;2022-08-19T02:29:21;2.40;;;2.10;;
67869;SDS011;54673;52.262;6.830;2022-08-19T02:31:46;2.40;;;2.20;;
67869;SDS011;54673;52.262;6.830;2022-08-19T02:34:12;2.30;;;2.10;;
67869;SDS011;54673;52.262;6.830;2022-08-19T02:36:37;2.30;;;2.10;;
67869;SDS011;54673;52.262;6.830;2022-08-19T02:39:04;2.70;;;2.37;;
67869;SDS011;54673;52.262;6.830;2022-08-19T02:41:30;4.57;;;2.40;;
67869;SDS011;54673;52.262;6.830;2022-08-19T02:43:58;4.27;;;2.60;;
67869;SDS011;54673;52.262;6.830;2022-08-19T02:46:27;3.55;;;2.67;;
67869;SDS011;54673;52.262;6.830;2022-08-19T02:48:56;3.33;;;2.87;;
67869;SDS011;54673;52.262;6.830;2022-08-19T02:51:28;4.90;;;3.20;;
67869;SDS011;54673;52.262;6.830;2022-08-19T02:53:56;3.33;;;3.00;;
67869;SDS011;54673;52.262;6.830;2022-08-19T02:56:22;3.37;;;2.50;;
67869;SDS011;54673;52.262;6.830;2022-08-19T02:58:49;3.78;;;3.13;;
67869;SDS011;54673;52.262;6.830;2022-08-19T03:01:26;5.33;;;2.90;;
67869;SDS011;54673;52.262;6.830;2022-08-19T03:03:53;3.65;;;2.90;;
67869;SDS011;54673;52.262;6.830;2022-08-19T03:06:20;3.50;;;2.60;;
67869;SDS011;54673;52.262;6.830;2022-08-19T03:08:47;2.57;;;2.37;;
67869;SDS011;54673;52.262;6.830;2022-08-19T03:11:30;2.80;;;2.13;;
67869;SDS011;54673;52.262;6.830;2022-08-19T03:13:56;3.55;;;2.42;;
67869;SDS011;54673;52.262;6.830;2022-08-19T03:16:24;2.77;;;2.57;;
67869;SDS011;54673;52.262;6.830;2022-08-19T03:18:51;3.95;;;2.50;;
67869;SDS011;54673;52.262;6.830;2022-08-19T03:21:22;3.47;;;2.60;;
67869;SDS011;54673;52.262;6.830;2022-08-19T03:23:49;2.70;;;2.50;;
67869;SDS011;54673;52.262;6.830;2022-08-19T03:26:18;2.53;;;2.33;;
67869;SDS011;54673;52.262;6.830;2022-08-19T03:28:44;2.90;;;2.60;;
67869;SDS011;54673;52.262;6.830;2022-08-19T03:31:15;3.53;;;2.70;;
67869;SDS011;54673;52.262;6.830;2022-08-19T03:33:43;3.27;;;2.87;;
67869;SDS011;54673;52.262;6.830;2022-08-19T03:38:40;5.18;;;2.38;;
67869;SDS011;54673;52.262;6.830;2022-08-19T03:41:09;1.93;;;1.83;;
67869;SDS011;54673;52.262;6.830;2022-08-19T03:43:38;2.20;;;2.00;;
67869;SDS011;54673;52.262;6.830;2022-08-19T03:46:10;4.05;;;2.40;;
67869;SDS011;54673;52.262;6.830;2022-08-19T03:48:38;8.13;;;2.90;;
67869;SDS011;54673;52.262;6.830;2022-08-19T03:51:05;3.80;;;2.83;;
67869;SDS011;54673;52.262;6.830;2022-08-19T03:53:31;4.63;;;3.08;;
67869;SDS011;54673;52.262;6.830;2022-08-19T03:55:58;5.90;;;2.92;;
67869;SDS011;54673;52.262;6.830;2022-08-19T03:58:28;6.93;;;2.77;;
67869;SDS011;54673;52.262;6.830;2022-08-19T04:00:55;5.38;;;3.10;;
67869;SDS011;54673;52.262;6.830;2022-08-19T04:03:21;4.93;;;2.80;;
67869;SDS011;54673;52.262;6.830;2022-08-19T04:05:48;5.90;;;3.37;;
67869;SDS011;54673;52.262;6.830;2022-08-19T04:08:14;8.30;;;3.45;;
67869;SDS011;54673;52.262;6.830;2022-08-19T04:10:43;10.03;;;4.13;;
67869;SDS011;54673;52.262;6.830;2022-08-19T04:13:09;6.23;;;3.50;;
67869;SDS011;54673;52.262;6.830;2022-08-19T04:15:38;5.35;;;3.30;;
67869;SDS011;54673;52.262;6.830;2022-08-19T04:18:06;5.07;;;3.10;;
67869;SDS011;54673;52.262;6.830;2022-08-19T04:20:38;7.38;;;2.97;;
67869;SDS011;54673;52.262;6.830;2022-08-19T04:23:08;5.60;;;3.47;;
67869;SDS011;54673;52.262;6.830;2022-08-19T04:25:43;7.43;;;2.97;;
67869;SDS011;54673;52.262;6.830;2022-08-19T04:28:09;10.45;;;3.58;;
67869;SDS011;54673;52.262;6.830;2022-08-19T04:30:38;5.00;;;2.90;;
67869;SDS011;54673;52.262;6.830;2022-08-19T04:33:05;4.72;;;2.90;;
67869;SDS011;54673;52.262;6.830;2022-08-19T04:35:34;10.50;;;3.60;;
67869;SDS011;54673;52.262;6.830;2022-08-19T04:38:08;4.50;;;2.57;;
67869;SDS011;54673;52.262;6.830;2022-08-19T04:40:34;5.07;;;2.95;;
67869;SDS011;54673;52.262;6.830;2022-08-19T04:43:34;4.57;;;3.10;;
67869;SDS011;54673;52.262;6.830;2022-08-19T04:46:07;5.87;;;3.27;;
67869;SDS011;54673;52.262;6.830;2022-08-19T04:48:35;4.93;;;3.00;;
67869;SDS011;54673;52.262;6.830;2022-08-19T04:51:01;4.87;;;3.10;;
67869;SDS011;54673;52.262;6.830;2022-08-19T04:53:32;5.53;;;3.03;;
67869;SDS011;54673;52.262;6.830;2022-08-19T04:55:59;8.10;;;2.90;;
67869;SDS011;54673;52.262;6.830;2022-08-19T04:58:28;6.17;;;3.30;;
67869;SDS011;54673;52.262;6.830;2022-08-19T05:00:54;4.45;;;2.80;;
67869;SDS011;54673;52.262;6.830;2022-08-19T05:03:20;6.10;;;2.90;;
67869;SDS011;54673;52.262;6.830;2022-08-19T05:05:46;7.73;;;3.07;;
67869;SDS011;54673;52.262;6.830;2022-08-19T05:08:18;6.93;;;3.03;;
67869;SDS011;54673;52.262;6.830;2022-08-19T05:10:49;3.93;;;2.30;;
67869;SDS011;54673;52.262;6.830;2022-08-19T05:13:17;6.78;;;2.63;;
67869;SDS011;54673;52.262;6.830;2022-08-19T05:15:44;4.78;;;2.72;;
67869;SDS011;54673;52.262;6.830;2022-08-19T05:18:17;4.77;;;2.73;;
67869;SDS011;54673;52.262;6.830;2022-08-19T05:21:05;3.38;;;3.08;;
67869;SDS011;54673;52.262;6.830;2022-08-19T05:23:53;4.47;;;2.90;;
67869;SDS011;54673;52.262;6.830;2022-08-19T05:26:19;3.47;;;3.10;;
67869;SDS011;54673;52.262;6.830;2022-08-19T05:28:44;5.80;;;3.30;;
67869;SDS011;54673;52.262;6.830;2022-08-19T05:31:10;3.73;;;3.23;;
67869;SDS011;54673;52.262;6.830;2022-08-19T05:33:35;4.33;;;3.37;;
67869;SDS011;54673;52.262;6.830;2022-08-19T05:36:02;3.95;;;3.50;;
67869;SDS011;54673;52.262;6.830;2022-08-19T05:38:28;5.23;;;3.60;;
67869;SDS011;54673;52.262;6.830;2022-08-19T05:40:54;4.30;;;3.42;;
67869;SDS011;54673;52.262;6.830;2022-08-19T05:43:20;3.85;;;3.35;;
67869;SDS011;54673;52.262;6.830;2022-08-19T05:45:46;5.50;;;3.50;;
67869;SDS011;54673;52.262;6.830;2022-08-19T05:48:12;4.78;;;3.53;;
67869;SDS011;54673;52.262;6.830;2022-08-19T05:50:38;6.27;;;3.90;;
67869;SDS011;54673;52.262;6.830;2022-08-19T05:53:05;6.20;;;3.72;;
67869;SDS011;54673;52.262;6.830;2022-08-19T05:55:31;6.63;;;3.80;;
67869;SDS011;54673;52.262;6.830;2022-08-19T05:57:57;5.20;;;3.13;;
67869;SDS011;54673;52.262;6.830;2022-08-19T06:00:23;4.83;;;3.50;;
67869;SDS011;54673;52.262;6.830;2022-08-19T06:02:48;4.75;;;3.83;;
67869;SDS011;54673;52.262;6.830;2022-08-19T06:05:15;5.22;;;3.30;;
67869;SDS011;54673;52.262;6.830;2022-08-19T06:07:41;4.23;;;3.80;;
67869;SDS011;54673;52.262;6.830;2022-08-19T06:10:07;6.37;;;3.40;;
67869;SDS011;54673;52.262;6.830;2022-08-19T06:12:35;9.32;;;3.80;;
67869;SDS011;54673;52.262;6.830;2022-08-19T06:15:03;9.20;;;4.22;;
67869;SDS011;54673;52.262;6.830;2022-08-19T06:17:34;10.37;;;3.73;;
67869;SDS011;54673;52.262;6.830;2022-08-19T06:20:00;18.45;;;4.32;;
67869;SDS011;54673;52.262;6.830;2022-08-19T06:22:26;26.52;;;4.88;;
67869;SDS011;54673;52.262;6.830;2022-08-19T06:24:52;21.20;;;4.80;;
67869;SDS011;54673;52.262;6.830;2022-08-19T06:27:19;27.50;;;4.80;;
67869;SDS011;54673;52.262;6.830;2022-08-19T06:29:45;24.20;;;4.18;;
67869;SDS011;54673;52.262;6.830;2022-08-19T06:32:11;10.60;;;3.70;;
67869;SDS011;54673;52.262;6.830;2022-08-19T06:34:37;20.67;;;4.53;;
67869;SDS011;54673;52.262;6.830;2022-08-19T06:37:04;14.05;;;4.28;;
67869;SDS011;54673;52.262;6.830;2022-08-19T06:39:32;20.10;;;4.15;;
67869;SDS011;54673;52.262;6.830;2022-08-19T06:42:01;17.47;;;4.43;;
67869;SDS011;54673;52.262;6.830;2022-08-19T06:44:30;15.10;;;4.10;;
67869;SDS011;54673;52.262;6.830;2022-08-19T06:47:00;12.25;;;4.85;;
67869;SDS011;54673;52.262;6.830;2022-08-19T06:49:29;15.17;;;4.57;;
67869;SDS011;54673;52.262;6.830;2022-08-19T06:51:58;11.95;;;5.47;;
67869;SDS011;54673;52.262;6.830;2022-08-19T06:54:24;11.23;;;6.40;;
67869;SDS011;54673;52.262;6.830;2022-08-19T06:56:51;9.37;;;5.80;;
67869;SDS011;54673;52.262;6.830;2022-08-19T06:59:18;12.50;;;4.40;;
67869;SDS011;54673;52.262;6.830;2022-08-19T07:01:49;9.90;;;5.60;;
67869;SDS011;54673;52.262;6.830;2022-08-19T07:04:17;14.57;;;5.80;;
67869;SDS011;54673;52.262;6.830;2022-08-19T07:06:45;9.52;;;6.00;;
67869;SDS011;54673;52.262;6.830;2022-08-19T07:09:13;10.97;;;6.17;;
67869;SDS011;54673;52.262;6.830;2022-08-19T07:11:47;7.30;;;4.03;;
67869;SDS011;54673;52.262;6.830;2022-08-19T07:14:14;9.63;;;4.55;;
67869;SDS011;54673;52.262;6.830;2022-08-19T07:16:42;6.50;;;4.43;;
67869;SDS011;54673;52.262;6.830;2022-08-19T07:19:10;13.20;;;5.60;;
67869;SDS011;54673;52.262;6.830;2022-08-19T07:21:37;9.15;;;5.22;;
67869;SDS011;54673;52.262;6.830;2022-08-19T07:24:03;20.27;;;4.53;;
67869;SDS011;54673;52.262;6.830;2022-08-19T07:26:30;10.40;;;4.77;;
67869;SDS011;54673;52.262;6.830;2022-08-19T07:28:58;8.65;;;5.82;;
67869;SDS011;54673;52.262;6.830;2022-08-19T07:31:26;14.60;;;6.90;;
67869;SDS011;54673;52.262;6.830;2022-08-19T07:33:53;11.73;;;6.07;;
67869;SDS011;54673;52.262;6.830;2022-08-19T07:36:23;14.88;;;6.18;;
67869;SDS011;54673;52.262;6.830;2022-08-19T07:38:55;9.75;;;5.43;;
67869;SDS011;54673;52.262;6.830;2022-08-19T07:41:22;10.67;;;5.47;;
67869;SDS011;54673;52.262;6.830;2022-08-19T07:43:50;8.18;;;5.80;;
67869;SDS011;54673;52.262;6.830;2022-08-19T07:46:16;8.93;;;6.03;;
67869;SDS011;54673;52.262;6.830;2022-08-19T07:48:45;9.18;;;5.35;;
67869;SDS011;54673;52.262;6.830;2022-08-19T07:51:12;10.27;;;5.90;;
67869;SDS011;54673;52.262;6.830;2022-08-19T07:53:40;7.40;;;4.50;;
67869;SDS011;54673;52.262;6.830;2022-08-19T07:56:05;8.82;;;5.53;;
67869;SDS011;54673;52.262;6.830;2022-08-19T07:58:33;10.57;;;5.93;;
67869;SDS011;54673;52.262;6.830;2022-08-19T08:01:01;6.72;;;5.65;;
67869;SDS011;54673;52.262;6.830;2022-08-19T08:03:29;7.50;;;5.47;;
67869;SDS011;54673;52.262;6.830;2022-08-19T08:06:13;8.73;;;5.37;;
67869;SDS011;54673;52.262;6.830;2022-08-19T08:09:00;8.68;;;5.70;;
67869;SDS011;54673;52.262;6.830;2022-08-19T08:11:41;8.93;;;5.43;;
67869;SDS011;54673;52.262;6.830;2022-08-19T08:14:16;7.70;;;5.50;;
67869;SDS011;54673;52.262;6.830;2022-08-19T08:16:43;9.40;;;5.72;;
67869;SDS011;54673;52.262;6.830;2022-08-19T08:19:10;8.60;;;5.13;;
67869;SDS011;54673;52.262;6.830;2022-08-19T08:21:36;6.07;;;5.07;;
67869;SDS011;54673;52.262;6.830;2022-08-19T08:24:02;9.13;;;5.82;;
67869;SDS011;54673;52.262;6.830;2022-08-19T08:26:28;9.53;;;6.33;;
67869;SDS011;54673;52.262;6.830;2022-08-19T08:28:53;11.93;;;6.10;;
67869;SDS011;54673;52.262;6.830;2022-08-19T08:31:19;9.40;;;6.33;;
67869;SDS011;54673;52.262;6.830;2022-08-19T08:33:45;8.10;;;6.25;;
67869;SDS011;54673;52.262;6.830;2022-08-19T08:36:12;11.50;;;6.97;;
67869;SDS011;54673;52.262;6.830;2022-08-19T08:38:38;10.33;;;7.37;;
67869;SDS011;54673;52.262;6.830;2022-08-19T08:41:09;11.40;;;7.90;;
67869;SDS011;54673;52.262;6.830;2022-08-19T08:43:44;11.60;;;7.70;;
67869;SDS011;54673;52.262;6.830;2022-08-19T08:46:55;10.17;;;7.13;;
67869;SDS011;54673;52.262;6.830;2022-08-19T08:49:24;13.63;;;7.50;;
67869;SDS011;54673;52.262;6.830;2022-08-19T08:52:02;16.03;;;7.80;;
67869;SDS011;54673;52.262;6.830;2022-08-19T08:54:44;8.13;;;6.87;;
67869;SDS011;54673;52.262;6.830;2022-08-19T08:57:17;15.57;;;8.88;;
67869;SDS011;54673;52.262;6.830;2022-08-19T08:59:48;13.67;;;8.80;;
67869;SDS011;54673;52.262;6.830;2022-08-19T09:02:18;12.00;;;9.27;;
67869;SDS011;54673;52.262;6.830;2022-08-19T09:04:44;10.82;;;7.63;;
67869;SDS011;54673;52.262;6.830;2022-08-19T09:09:49;13.87;;;8.80;;
67869;SDS011;54673;52.262;6.830;2022-08-19T09:12:23;16.80;;;9.45;;
67869;SDS011;54673;52.262;6.830;2022-08-19T09:14:55;11.63;;;8.05;;
67869;SDS011;54673;52.262;6.830;2022-08-19T09:17:27;9.40;;;7.10;;
67869;SDS011;54673;52.262;6.830;2022-08-19T09:22:59;12.40;;;9.15;;
67869;SDS011;54673;52.262;6.830;2022-08-19T09:25:25;9.80;;;7.77;;
67869;SDS011;54673;52.262;6.830;2022-08-19T09:27:51;10.68;;;7.40;;
67869;SDS011;54673;52.262;6.830;2022-08-19T09:30:23;10.40;;;6.83;;
67869;SDS011;54673;52.262;6.830;2022-08-19T09:32:50;11.50;;;7.40;;
67869;SDS011;54673;52.262;6.830;2022-08-19T09:35:20;9.45;;;6.90;;
67869;SDS011;54673;52.262;6.830;2022-08-19T09:37:47;10.87;;;6.93;;
67869;SDS011;54673;52.262;6.830;2022-08-19T09:40:14;7.85;;;6.05;;
67869;SDS011;54673;52.262;6.830;2022-08-19T09:42:40;8.93;;;6.80;;
67869;SDS011;54673;52.262;6.830;2022-08-19T09:45:08;9.67;;;6.63;;
67869;SDS011;54673;52.262;6.830;2022-08-19T09:47:35;9.25;;;6.82;;
67869;SDS011;54673;52.262;6.830;2022-08-19T09:50:03;9.25;;;6.38;;
67869;SDS011;54673;52.262;6.830;2022-08-19T09:52:30;9.07;;;6.30;;
67869;SDS011;54673;52.262;6.830;2022-08-19T09:54:56;10.30;;;6.30;;
67869;SDS011;54673;52.262;6.830;2022-08-19T09:57:22;9.73;;;6.03;;
67869;SDS011;54673;52.262;6.830;2022-08-19T09:59:47;10.50;;;6.70;;
67869;SDS011;54673;52.262;6.830;2022-08-19T10:02:13;8.77;;;5.87;;
67869;SDS011;54673;52.262;6.830;2022-08-19T10:04:38;8.50;;;6.47;;
67869;SDS011;54673;52.262;6.830;2022-08-19T10:07:23;8.20;;;6.07;;
67869;SDS011;54673;52.262;6.830;2022-08-19T10:09:49;6.57;;;5.65;;
67869;SDS011;54673;52.262;6.830;2022-08-19T10:12:14;9.23;;;7.07;;
67869;SDS011;54673;52.262;6.830;2022-08-19T10:14:40;10.00;;;6.80;;
67869;SDS011;54673;52.262;6.830;2022-08-19T10:17:07;11.03;;;7.07;;
67869;SDS011;54673;52.262;6.830;2022-08-19T10:19:32;9.33;;;6.07;;
67869;SDS011;54673;52.262;6.830;2022-08-19T10:22:04;9.02;;;7.00;;
67869;SDS011;54673;52.262;6.830;2022-08-19T10:24:32;7.20;;;6.10;;
67869;SDS011;54673;52.262;6.830;2022-08-19T10:26:58;8.40;;;6.28;;
67869;SDS011;54673;52.262;6.830;2022-08-19T10:29:26;8.18;;;6.18;;
67869;SDS011;54673;52.262;6.830;2022-08-19T10:31:55;9.63;;;6.90;;
67869;SDS011;54673;52.262;6.830;2022-08-19T10:34:21;12.02;;;6.55;;
67869;SDS011;54673;52.262;6.830;2022-08-19T10:36:47;9.75;;;6.22;;
67869;SDS011;54673;52.262;6.830;2022-08-19T10:39:13;10.67;;;7.20;;
67869;SDS011;54673;52.262;6.830;2022-08-19T10:41:39;12.05;;;7.18;;
67869;SDS011;54673;52.262;6.830;2022-08-19T10:44:06;15.20;;;7.50;;
67869;SDS011;54673;52.262;6.830;2022-08-19T10:46:35;9.60;;;6.82;;
67869;SDS011;54673;52.262;6.830;2022-08-19T10:49:03;9.15;;;6.88;;
67869;SDS011;54673;52.262;6.830;2022-08-19T10:51:30;10.47;;;6.40;;
67869;SDS011;54673;52.262;6.830;2022-08-19T10:54:16;12.00;;;8.00;;
67869;SDS011;54673;52.262;6.830;2022-08-19T10:56:42;8.77;;;7.38;;
67869;SDS011;54673;52.262;6.830;2022-08-19T10:59:18;10.10;;;7.70;;
67869;SDS011;54673;52.262;6.830;2022-08-19T11:01:45;11.20;;;7.30;;
67869;SDS011;54673;52.262;6.830;2022-08-19T11:04:10;12.20;;;7.40;;
67869;SDS011;54673;52.262;6.830;2022-08-19T11:06:38;8.70;;;6.87;;
67869;SDS011;54673;52.262;6.830;2022-08-19T11:09:05;10.18;;;7.20;;
67869;SDS011;54673;52.262;6.830;2022-08-19T11:11:32;9.50;;;7.05;;
67869;SDS011;54673;52.262;6.830;2022-08-19T11:14:04;11.27;;;7.60;;
67869;SDS011;54673;52.262;6.830;2022-08-19T11:16:29;11.45;;;7.28;;
67869;SDS011;54673;52.262;6.830;2022-08-19T11:18:57;9.27;;;6.50;;
67869;SDS011;54673;52.262;6.830;2022-08-19T11:21:27;11.13;;;6.80;;
67869;SDS011;54673;52.262;6.830;2022-08-19T11:23:58;10.40;;;7.03;;
67869;SDS011;54673;52.262;6.830;2022-08-19T11:26:25;12.83;;;7.63;;
67869;SDS011;54673;52.262;6.830;2022-08-19T11:28:52;14.33;;;8.67;;
67869;SDS011;54673;52.262;6.830;2022-08-19T11:31:21;13.50;;;8.00;;
67869;SDS011;54673;52.262;6.830;2022-08-19T11:33:50;10.93;;;7.65;;
67869;SDS011;54673;52.262;6.830;2022-08-19T11:36:17;16.00;;;9.53;;
67869;SDS011;54673;52.262;6.830;2022-08-19T11:38:44;16.88;;;9.13;;
67869;SDS011;54673;52.262;6.830;2022-08-19T11:41:10;9.43;;;7.90;;
67869;SDS011;54673;52.262;6.830;2022-08-19T11:43:36;9.67;;;6.77;;
67869;SDS011;54673;52.262;6.830;2022-08-19T11:46:06;8.30;;;6.45;;
67869;SDS011;54673;52.262;6.830;2022-08-19T11:48:33;8.33;;;6.50;;
67869;SDS011;54673;52.262;6.830;2022-08-19T11:51:02;10.55;;;6.45;;
67869;SDS011;54673;52.262;6.830;2022-08-19T11:53:31;9.05;;;5.90;;
67869;SDS011;54673;52.262;6.830;2022-08-19T11:55:57;7.70;;;5.40;;
67869;SDS011;54673;52.262;6.830;2022-08-19T11:58:23;9.93;;;5.85;;
67869;SDS011;54673;52.262;6.830;2022-08-19T12:00:49;7.53;;;5.70;;
67869;SDS011;54673;52.262;6.830;2022-08-19T12:03:15;6.95;;;5.60;;
67869;SDS011;54673;52.262;6.830;2022-08-19T12:05:41;9.65;;;5.57;;
67869;SDS011;54673;52.262;6.830;2022-08-19T12:08:07;8.13;;;4.80;;
67869;SDS011;54673;52.262;6.830;2022-08-19T12:10:33;6.53;;;5.43;;
67869;SDS011;54673;52.262;6.830;2022-08-19T12:13:01;6.63;;;5.10;;
67869;SDS011;54673;52.262;6.830;2022-08-19T12:15:27;6.00;;;4.73;;
67869;SDS011;54673;52.262;6.830;2022-08-19T12:17:54;7.57;;;5.05;;
67869;SDS011;54673;52.262;6.830;2022-08-19T12:20:21;8.05;;;5.30;;
67869;SDS011;54673;52.262;6.830;2022-08-19T12:22:48;7.20;;;5.17;;
67869;SDS011;54673;52.262;6.830;2022-08-19T12:25:14;5.85;;;4.90;;
67869;SDS011;54673;52.262;6.830;2022-08-19T12:27:39;6.20;;;4.70;;
67869;SDS011;54673;52.262;6.830;2022-08-19T12:30:06;7.82;;;5.45;;
67869;SDS011;54673;52.262;6.830;2022-08-19T12:32:34;7.78;;;4.80;;
67869;SDS011;54673;52.262;6.830;2022-08-19T12:35:00;9.30;;;5.20;;
67869;SDS011;54673;52.262;6.830;2022-08-19T12:37:26;7.57;;;4.82;;
67869;SDS011;54673;52.262;6.830;2022-08-19T12:39:51;6.93;;;4.70;;
67869;SDS011;54673;52.262;6.830;2022-08-19T12:42:17;6.28;;;4.63;;
67869;SDS011;54673;52.262;6.830;2022-08-19T12:44:43;8.98;;;5.38;;
67869;SDS011;54673;52.262;6.830;2022-08-19T12:47:10;6.30;;;4.90;;
67869;SDS011;54673;52.262;6.830;2022-08-19T12:49:37;6.22;;;4.63;;
67869;SDS011;54673;52.262;6.830;2022-08-19T12:52:04;7.40;;;4.77;;
67869;SDS011;54673;52.262;6.830;2022-08-19T12:54:32;6.00;;;4.57;;
67869;SDS011;54673;52.262;6.830;2022-08-19T12:56:58;7.70;;;5.65;;
67869;SDS011;54673;52.262;6.830;2022-08-19T12:59:24;7.88;;;5.25;;
67869;SDS011;54673;52.262;6.830;2022-08-19T13:01:50;7.90;;;5.27;;
67869;SDS011;54673;52.262;6.830;2022-08-19T13:04:16;6.75;;;4.75;;
67869;SDS011;54673;52.262;6.830;2022-08-19T13:06:41;9.13;;;5.47;;
67869;SDS011;54673;52.262;6.830;2022-08-19T13:09:07;5.45;;;4.70;;
67869;SDS011;54673;52.262;6.830;2022-08-19T13:11:33;7.32;;;5.60;;
67869;SDS011;54673;52.262;6.830;2022-08-19T13:14:00;5.30;;;4.80;;
67869;SDS011;54673;52.262;6.830;2022-08-19T13:16:27;9.55;;;4.70;;
67869;SDS011;54673;52.262;6.830;2022-08-19T13:18:53;9.27;;;5.18;;
67869;SDS011;54673;52.262;6.830;2022-08-19T13:21:21;8.57;;;5.00;;
67869;SDS011;54673;52.262;6.830;2022-08-19T13:23:50;6.57;;;5.23;;
67869;SDS011;54673;52.262;6.830;2022-08-19T13:26:16;6.00;;;5.40;;
67869;SDS011;54673;52.262;6.830;2022-08-19T13:28:43;7.18;;;5.80;;
67869;SDS011;54673;52.262;6.830;2022-08-19T13:31:30;6.53;;;5.20;;
67869;SDS011;54673;52.262;6.830;2022-08-19T13:34:17;6.90;;;5.35;;
67869;SDS011;54673;52.262;6.830;2022-08-19T13:36:51;6.90;;;5.43;;
67869;SDS011;54673;52.262;6.830;2022-08-19T13:39:18;6.37;;;5.00;;
67869;SDS011;54673;52.262;6.830;2022-08-19T13:41:44;6.53;;;5.35;;
67869;SDS011;54673;52.262;6.830;2022-08-19T13:44:15;5.93;;;4.95;;
67869;SDS011;54673;52.262;6.830;2022-08-19T13:46:45;5.50;;;5.00;;
67869;SDS011;54673;52.262;6.830;2022-08-19T13:49:13;6.10;;;4.90;;
67869;SDS011;54673;52.262;6.830;2022-08-19T13:51:40;7.35;;;6.07;;
67869;SDS011;54673;52.262;6.830;2022-08-19T13:54:08;7.43;;;5.93;;
67869;SDS011;54673;52.262;6.830;2022-08-19T13:56:35;9.10;;;6.30;;
67869;SDS011;54673;52.262;6.830;2022-08-19T13:59:04;7.63;;;5.68;;
67869;SDS011;54673;52.262;6.830;2022-08-19T14:01:30;7.67;;;6.03;;
67869;SDS011;54673;52.262;6.830;2022-08-19T14:03:56;8.18;;;6.22;;
67869;SDS011;54673;52.262;6.830;2022-08-19T14:06:21;6.80;;;5.87;;
67869;SDS011;54673;52.262;6.830;2022-08-19T14:08:47;8.13;;;6.25;;
67869;SDS011;54673;52.262;6.830;2022-08-19T14:11:13;8.47;;;6.43;;
67869;SDS011;54673;52.262;6.830;2022-08-19T14:13:39;10.43;;;7.20;;
67869;SDS011;54673;52.262;6.830;2022-08-19T14:16:06;13.00;;;8.07;;
67869;SDS011;54673;52.262;6.830;2022-08-19T14:18:33;11.47;;;7.40;;
67869;SDS011;54673;52.262;6.830;2022-08-19T14:20:59;10.37;;;7.70;;
67869;SDS011;54673;52.262;6.830;2022-08-19T14:23:25;9.38;;;7.38;;
67869;SDS011;54673;52.262;6.830;2022-08-19T14:25:50;13.00;;;6.70;;
67869;SDS011;54673;52.262;6.830;2022-08-19T14:28:16;10.87;;;7.23;;
67869;SDS011;54673;52.262;6.830;2022-08-19T14:30:41;9.82;;;6.60;;
67869;SDS011;54673;52.262;6.830;2022-08-19T14:33:09;8.95;;;6.50;;
67869;SDS011;54673;52.262;6.830;2022-08-19T14:35:34;8.93;;;6.00;;
67869;SDS011;54673;52.262;6.830;2022-08-19T14:38:01;7.80;;;5.57;;
67869;SDS011;54673;52.262;6.830;2022-08-19T14:40:28;10.23;;;6.97;;
67869;SDS011;54673;52.262;6.830;2022-08-19T14:42:57;9.73;;;7.07;;
67869;SDS011;54673;52.262;6.830;2022-08-19T14:45:27;9.98;;;6.38;;
67869;SDS011;54673;52.262;6.830;2022-08-19T14:47:53;7.77;;;5.90;;
67869;SDS011;54673;52.262;6.830;2022-08-19T14:50:20;9.48;;;6.57;;
67869;SDS011;54673;52.262;6.830;2022-08-19T14:52:46;8.43;;;6.10;;
67869;SDS011;54673;52.262;6.830;2022-08-19T14:55:12;8.83;;;6.23;;
67869;SDS011;54673;52.262;6.830;2022-08-19T14:57:40;7.88;;;5.65;;
67869;SDS011;54673;52.262;6.830;2022-08-19T15:00:06;7.07;;;6.00;;